Dobrodošli na spletni strani vremenske postaje Senovo. Vse informacije so informativnega značaja, saj vremenska postaja ni del državne mreže meteoroloških postaj. OBVESTILO: Letni količini padavin navedeni na spletni strani je potrebno prišteti 98,1 mm, zaradi izgube podatkov.


Veter Od: 11-12-2017 04:00 Do: 12-12-2017 10:59 Opozorilo za: Veter Stopnja: Oranžna info button
Dež Od: 11-12-2017 00:00 Do: 16:59 Opozorilo za: Dež Stopnja: Rumena info button

Pogled proti Armezu več informacij Pogled proti Armezu


Lisca več informacij Lisca


Radar strel več informacij blitzortung!


opozorilo za Dež več informacij rain snow radar


Obiščite še:

Template documentation
and downloads

And another site



Weather Underground, zgodovina - Tekstovno

Dnevni povzetek za Avgust 27, 2017 Enote:  Metrično    Angleško   Obe
« Predhodni Dan
Naslednji Dan »
Dnevni Tedenski Mesečni Letni Po meri
  Višja: Nižja: Povprečje:
Temperatura: 34.5 °C 16.3 °C 24.9 °C
Točka rosišča: 20.4 °C 12.1 °C 16.7 °C
Vlažnost: 93 % 37 % 65 %
Hitrost vetra: 12.9 km/h 0.0 km/h 2.3 km/h
Sunki vetra: 27.7 km/h - -
Veter:- - SSE
Zračni tlak: 1016.8 hPa 1013.1 hPa -
Padavine: 0.0 mm    
Historical Graphs
 
 
Tabelarni podarki za Avgust 27, 2017
Čas Temperatura Točka rosišča Zračni tlak Veter Hitrost vetra Sunki vetra Vlažnost Intenziteta padavin (urna)
00:00 19.1 °C 16.3 °C 1016.8 hPa Calm     84 % 0.0 mm
00:05 19.0 °C 16.1 °C 1016.8 hPa Calm     83 % 0.0 mm
00:10 19.0 °C 16.6 °C 1016.8 hPa Calm     86 % 0.0 mm
00:15 18.9 °C 16.5 °C 1016.8 hPa Calm     86 % 0.0 mm
00:20 18.9 °C 16.5 °C 1016.8 hPa Calm     86 % 0.0 mm
00:25 18.8 °C 16.4 °C 1016.8 hPa Calm     86 % 0.0 mm
00:30 18.8 °C 16.4 °C 1016.8 hPa Calm     86 % 0.0 mm
00:35 18.7 °C 16.3 °C 1016.8 hPa Calm     86 % 0.0 mm
00:40 18.6 °C 16.4 °C 1016.8 hPa Calm     87 % 0.0 mm
00:45 18.5 °C 16.3 °C 1016.8 hPa Calm     87 % 0.0 mm
00:50 18.4 °C 16.2 °C 1016.8 hPa Calm     87 % 0.0 mm
00:55 18.4 °C 16.2 °C 1016.8 hPa Calm     87 % 0.0 mm
01:00 18.3 °C 16.1 °C 1016.8 hPa Calm     87 % 0.0 mm
01:05 18.2 °C 16.0 °C 1016.8 hPa Calm     87 % 0.0 mm
01:10 18.2 °C 16.0 °C 1016.8 hPa Calm     87 % 0.0 mm
01:15 18.2 °C 16.2 °C 1016.8 hPa Calm     88 % 0.0 mm
01:20 18.1 °C 16.1 °C 1016.8 hPa Calm     88 % 0.0 mm
01:25 18.0 °C 16.0 °C 1016.8 hPa Calm     88 % 0.0 mm
01:30 18.0 °C 16.0 °C 1016.8 hPa Calm     88 % 0.0 mm
01:35 17.9 °C 15.9 °C 1016.8 hPa Calm     88 % 0.0 mm
01:40 17.9 °C 15.9 °C 1016.8 hPa Calm     88 % 0.0 mm
01:45 17.9 °C 15.9 °C 1016.8 hPa Calm     88 % 0.0 mm
01:50 17.8 °C 15.8 °C 1016.1 hPa Calm     88 % 0.0 mm
01:55 17.7 °C 15.9 °C 1016.1 hPa Calm     89 % 0.0 mm
02:00 17.7 °C 15.9 °C 1016.1 hPa Calm     89 % 0.0 mm
02:05 17.6 °C 15.8 °C 1016.1 hPa Calm     89 % 0.0 mm
02:10 17.6 °C 15.8 °C 1016.1 hPa Calm     89 % 0.0 mm
02:15 17.5 °C 15.7 °C 1016.1 hPa Calm     89 % 0.0 mm
02:20 17.5 °C 15.7 °C 1016.1 hPa Calm     89 % 0.0 mm
02:25 17.4 °C 15.6 °C 1016.1 hPa Calm     89 % 0.0 mm
02:30 17.4 °C 15.6 °C 1016.1 hPa Calm     89 % 0.0 mm
02:35 17.3 °C 15.4 °C 1016.1 hPa Calm     89 % 0.0 mm
02:40 17.3 °C 15.4 °C 1016.1 hPa Calm     89 % 0.0 mm
02:45 17.2 °C 15.4 °C 1016.1 hPa Calm     89 % 0.0 mm
02:50 17.2 °C 15.4 °C 1016.1 hPa Calm     89 % 0.0 mm
02:55 17.1 °C 15.3 °C 1016.1 hPa Calm     89 % 0.0 mm
03:00 17.0 °C 15.3 °C 1016.1 hPa Calm     90 % 0.0 mm
03:05 17.0 °C 15.3 °C 1015.1 hPa Calm     90 % 0.0 mm
03:10 17.0 °C 15.3 °C 1015.1 hPa Calm     90 % 0.0 mm
03:15 16.9 °C 15.2 °C 1015.1 hPa Calm     90 % 0.0 mm
03:20 16.9 °C 15.2 °C 1015.1 hPa Calm     90 % 0.0 mm
03:25 16.9 °C 15.2 °C 1015.1 hPa Calm     90 % 0.0 mm
03:30 16.8 °C 15.3 °C 1015.1 hPa Calm     91 % 0.0 mm
03:35 16.8 °C 15.3 °C 1015.1 hPa Calm   4.3 km/h 91 % 0.0 mm
03:40 16.8 °C 15.3 °C 1015.1 hPa NW 0.5 km/h 4.3 km/h 91 % 0.0 mm
03:45 16.7 °C 15.2 °C 1015.1 hPa NW 0.5 km/h 4.3 km/h 91 % 0.0 mm
03:50 16.7 °C 15.2 °C 1015.1 hPa Calm     91 % 0.0 mm
03:55 16.6 °C 15.1 °C 1015.1 hPa Calm     91 % 0.0 mm
04:00 16.6 °C 15.1 °C 1015.1 hPa Calm   2.1 km/h 91 % 0.0 mm
04:05 16.6 °C 15.1 °C 1016.8 hPa WSW 1.1 km/h 4.0 km/h 91 % 0.0 mm
04:10 16.5 °C 15.0 °C 1016.8 hPa WSW 1.6 km/h 4.0 km/h 91 % 0.0 mm
04:15 16.5 °C 15.2 °C 1016.8 hPa West 0.5 km/h 3.2 km/h 92 % 0.0 mm
04:20 16.5 °C 15.2 °C 1015.1 hPa Calm   2.1 km/h 92 % 0.0 mm
04:25 16.4 °C 14.9 °C 1015.1 hPa Calm     91 % 0.0 mm
04:30 16.4 °C 15.1 °C 1015.1 hPa Calm     92 % 0.0 mm
04:35 16.4 °C 15.1 °C 1016.1 hPa Calm     92 % 0.0 mm
04:40 16.4 °C 14.9 °C 1016.1 hPa Calm     91 % 0.0 mm
04:45 16.4 °C 15.1 °C 1016.1 hPa Calm     92 % 0.0 mm
04:50 16.4 °C 15.1 °C 1016.1 hPa Calm     92 % 0.0 mm
04:55 16.4 °C 15.1 °C 1016.1 hPa Calm     92 % 0.0 mm
05:00 16.4 °C 15.1 °C 1016.1 hPa Calm     92 % 0.0 mm
05:05 16.4 °C 15.1 °C 1016.1 hPa Calm     92 % 0.0 mm
05:11 16.4 °C 15.1 °C 1016.1 hPa Calm     92 % 0.0 mm
05:16 16.4 °C 15.1 °C 1016.1 hPa Calm     92 % 0.0 mm
05:21 16.3 °C 15.0 °C 1016.1 hPa Calm     92 % 0.0 mm
05:26 16.4 °C 15.1 °C 1016.1 hPa Calm     92 % 0.0 mm
05:31 16.3 °C 15.0 °C 1016.8 hPa Calm     92 % 0.0 mm
05:36 16.4 °C 15.1 °C 1016.8 hPa Calm     92 % 0.0 mm
05:41 16.4 °C 15.1 °C 1016.8 hPa Calm     92 % 0.0 mm
05:46 16.4 °C 15.1 °C 1016.1 hPa Calm     92 % 0.0 mm
05:51 16.5 °C 15.2 °C 1016.1 hPa Calm     92 % 0.0 mm
05:56 16.5 °C 15.2 °C 1016.1 hPa Calm     92 % 0.0 mm
06:01 16.6 °C 15.4 °C 1016.1 hPa Calm     93 % 0.0 mm
06:06 16.6 °C 15.3 °C 1016.1 hPa Calm     92 % 0.0 mm
06:11 16.6 °C 15.4 °C 1016.1 hPa Calm     93 % 0.0 mm
06:16 16.6 °C 15.4 °C 1016.1 hPa Calm     93 % 0.0 mm
06:21 16.6 °C 15.4 °C 1016.1 hPa Calm     93 % 0.0 mm
06:26 16.7 °C 15.6 °C 1016.1 hPa Calm     93 % 0.0 mm
06:31 16.7 °C 15.6 °C 1015.1 hPa Calm     93 % 0.0 mm
06:36 16.8 °C 15.7 °C 1015.1 hPa Calm     93 % 0.0 mm
06:41 16.8 °C 15.7 °C 1015.1 hPa Calm     93 % 0.0 mm
06:46 16.9 °C 15.8 °C 1015.1 hPa Calm     93 % 0.0 mm
06:51 16.9 °C 15.8 °C 1015.1 hPa Calm     93 % 0.0 mm
06:56 16.9 °C 15.8 °C 1015.1 hPa Calm     93 % 0.0 mm
07:01 17.0 °C 15.8 °C 1016.1 hPa Calm     93 % 0.0 mm
07:06 17.0 °C 15.8 °C 1016.1 hPa Calm     93 % 0.0 mm
07:11 17.0 °C 15.8 °C 1016.1 hPa Calm     93 % 0.0 mm
07:16 17.0 °C 15.8 °C 1016.1 hPa Calm     93 % 0.0 mm
07:21 17.2 °C 16.1 °C 1016.1 hPa Calm     93 % 0.0 mm
07:26 17.2 °C 16.1 °C 1016.1 hPa Calm     93 % 0.0 mm
07:31 17.4 °C 16.3 °C 1016.1 hPa Calm     93 % 0.0 mm
07:36 17.5 °C 16.3 °C 1016.1 hPa Calm     93 % 0.0 mm
07:41 17.7 °C 16.6 °C 1016.1 hPa Calm     93 % 0.0 mm
07:46 17.8 °C 16.7 °C 1016.1 hPa Calm     93 % 0.0 mm
07:51 18.0 °C 16.7 °C 1016.1 hPa Calm     92 % 0.0 mm
07:56 18.0 °C 16.7 °C 1016.1 hPa Calm     92 % 0.0 mm
08:02 18.1 °C 16.8 °C 1016.1 hPa Calm     92 % 0.0 mm
08:07 18.3 °C 17.0 °C 1016.1 hPa Calm     92 % 0.0 mm
08:12 18.6 °C 17.3 °C 1016.1 hPa Calm     92 % 0.0 mm
08:17 18.9 °C 17.6 °C 1016.1 hPa Calm     92 % 0.0 mm
08:22 19.3 °C 17.8 °C 1016.1 hPa Calm   1.8 km/h 91 % 0.0 mm
08:27 19.6 °C 18.1 °C 1016.1 hPa Calm   1.8 km/h 91 % 0.0 mm
08:32 20.0 °C 18.3 °C 1016.1 hPa Calm     90 % 0.0 mm
08:37 20.5 °C 18.6 °C 1016.1 hPa ESE 0.6 km/h 4.3 km/h 89 % 0.0 mm
08:42 20.8 °C 18.9 °C 1016.1 hPa ESE 1.3 km/h 4.3 km/h 89 % 0.0 mm
08:47 21.2 °C 18.9 °C 1016.1 hPa ESE 0.6 km/h 3.5 km/h 87 % 0.0 mm
08:52 21.6 °C 19.3 °C 1016.1 hPa ESE 0.2 km/h 2.1 km/h 87 % 0.0 mm
08:57 22.0 °C 19.3 °C 1016.1 hPa ESE 0.8 km/h 5.0 km/h 85 % 0.0 mm
09:02 22.4 °C 19.4 °C 1016.8 hPa ESE 1.4 km/h 5.0 km/h 83 % 0.0 mm
09:07 22.7 °C 19.3 °C 1016.8 hPa ESE 1.6 km/h 4.7 km/h 81 % 0.0 mm
09:12 23.0 °C 19.4 °C 1016.8 hPa ESE 1.0 km/h 4.3 km/h 80 % 0.0 mm
09:17 23.3 °C 19.7 °C 1016.8 hPa ESE 0.6 km/h 3.2 km/h 80 % 0.0 mm
09:22 23.6 °C 19.7 °C 1016.8 hPa ESE 1.4 km/h 3.5 km/h 79 % 0.0 mm
09:27 23.8 °C 19.7 °C 1016.8 hPa ESE 1.0 km/h 3.5 km/h 78 % 0.0 mm
09:32 24.0 °C 19.7 °C 1016.8 hPa SE 0.5 km/h 4.0 km/h 77 % 0.0 mm
09:37 24.3 °C 19.6 °C 1016.8 hPa SE 1.1 km/h 4.0 km/h 75 % 0.0 mm
09:42 24.4 °C 19.4 °C 1016.8 hPa SE 0.6 km/h 4.0 km/h 74 % 0.0 mm
09:47 24.4 °C 19.0 °C 1016.8 hPa SE 0.2 km/h 4.0 km/h 72 % 0.0 mm
09:52 24.7 °C 19.3 °C 1016.8 hPa SE 0.5 km/h 4.0 km/h 72 % 0.0 mm
09:57 25.0 °C 19.2 °C 1016.8 hPa SE 0.8 km/h 3.5 km/h 70 % 0.0 mm
10:02 25.3 °C 19.2 °C 1016.8 hPa SE 0.5 km/h 3.2 km/h 69 % 0.0 mm
10:07 25.6 °C 19.5 °C 1016.8 hPa Calm     69 % 0.0 mm
10:12 25.9 °C 19.6 °C 1016.8 hPa SE 0.5 km/h 2.6 km/h 68 % 0.0 mm
10:13 26.0 °C 19.6 °C 1016.8 hPa SE 0.6 km/h 4.7 km/h 68 % 0.0 mm
10:18 26.4 °C 20.0 °C 1016.8 hPa SSE 1.8 km/h 4.7 km/h 68 % 0.0 mm
10:23 26.8 °C 20.2 °C 1016.8 hPa South 3.5 km/h 6.9 km/h 67 % 0.0 mm
10:28 27.0 °C 20.1 °C 1016.8 hPa South 4.0 km/h 8.7 km/h 66 % 0.0 mm
10:34 27.4 °C 20.2 °C 1016.8 hPa South 3.7 km/h 8.7 km/h 65 % 0.0 mm
10:39 27.7 °C 20.3 °C 1016.8 hPa South 4.2 km/h 7.6 km/h 64 % 0.0 mm
10:44 27.9 °C 20.2 °C 1016.8 hPa South 4.2 km/h 6.9 km/h 63 % 0.0 mm
10:49 28.2 °C 20.2 °C 1016.1 hPa SSW 4.0 km/h 6.9 km/h 62 % 0.0 mm
10:54 28.4 °C 20.4 °C 1016.1 hPa South 2.7 km/h 7.9 km/h 62 % 0.0 mm
10:59 28.6 °C 20.1 °C 1016.1 hPa South 2.1 km/h 7.9 km/h 60 % 0.0 mm
11:04 28.7 °C 20.2 °C 1016.1 hPa SSE 2.4 km/h 5.0 km/h 60 % 0.0 mm
11:09 28.9 °C 20.1 °C 1016.1 hPa SE 2.1 km/h 5.0 km/h 59 % 0.0 mm
11:14 29.1 °C 20.0 °C 1016.1 hPa East 2.7 km/h 5.8 km/h 58 % 0.0 mm
11:19 29.2 °C 19.5 °C 1015.1 hPa ESE 3.5 km/h 6.9 km/h 56 % 0.0 mm
11:24 29.5 °C 19.8 °C 1015.1 hPa ESE 3.5 km/h 6.9 km/h 56 % 0.0 mm
11:29 29.8 °C 20.1 °C 1015.1 hPa ESE 4.2 km/h 6.4 km/h 56 % 0.0 mm
11:30 29.8 °C 20.1 °C 1015.1 hPa ESE 4.2 km/h 6.9 km/h 56 % 0.0 mm
11:35 30.1 °C 19.4 °C 1016.1 hPa SE 4.5 km/h 6.9 km/h 53 % 0.0 mm
11:40 30.3 °C 18.7 °C 1016.1 hPa SE 3.4 km/h 6.4 km/h 50 % 0.0 mm
11:45 30.5 °C 19.2 °C 1016.1 hPa ESE 3.4 km/h 7.9 km/h 51 % 0.0 mm
11:50 30.6 °C 19.0 °C 1015.1 hPa ESE 3.9 km/h 7.9 km/h 50 % 0.0 mm
11:55 30.7 °C 19.1 °C 1015.1 hPa SSE 3.7 km/h 6.4 km/h 50 % 0.0 mm
12:00 30.9 °C 18.9 °C 1015.1 hPa SSE 3.1 km/h 6.9 km/h 49 % 0.0 mm
12:05 30.9 °C 18.3 °C 1015.1 hPa ESE 1.8 km/h 6.9 km/h 47 % 0.0 mm
12:10 31.1 °C 18.4 °C 1015.1 hPa South 2.4 km/h 6.4 km/h 47 % 0.0 mm
12:15 31.3 °C 18.7 °C 1015.1 hPa SSE 4.0 km/h 10.1 km/h 47 % 0.0 mm
12:20 31.5 °C 18.5 °C 1016.1 hPa SSE 4.2 km/h 10.1 km/h 46 % 0.0 mm
12:25 31.5 °C 18.5 °C 1016.1 hPa SSW 4.0 km/h 6.9 km/h 46 % 0.0 mm
12:30 31.6 °C 18.2 °C 1016.1 hPa SSW 3.9 km/h 6.9 km/h 45 % 0.0 mm
12:35 31.8 °C 18.4 °C 1015.1 hPa SSE 4.0 km/h 9.7 km/h 45 % 0.0 mm
12:40 31.9 °C 18.5 °C 1015.1 hPa SW 4.3 km/h 9.7 km/h 45 % 0.0 mm
12:45 32.1 °C 18.3 °C 1015.1 hPa WSW 4.0 km/h 7.9 km/h 44 % 0.0 mm
12:50 32.2 °C 18.4 °C 1016.1 hPa SW 3.9 km/h 11.6 km/h 44 % 0.0 mm
12:55 32.5 °C 18.3 °C 1016.1 hPa SSW 4.8 km/h 11.6 km/h 43 % 0.0 mm
13:00 32.5 °C 17.9 °C 1016.1 hPa South 4.7 km/h 7.9 km/h 42 % 0.0 mm
13:05 32.6 °C 18.4 °C 1016.1 hPa SW 4.7 km/h 11.9 km/h 43 % 0.0 mm
13:10 32.8 °C 18.6 °C 1016.1 hPa SSW 5.6 km/h 11.9 km/h 43 % 0.0 mm
13:15 32.9 °C 18.3 °C 1016.1 hPa South 4.2 km/h 12.2 km/h 42 % 0.0 mm
13:20 33.0 °C 18.4 °C 1016.1 hPa WSW 5.1 km/h 12.2 km/h 42 % 0.0 mm
13:25 33.1 °C 18.1 °C 1016.1 hPa WSW 6.8 km/h 12.2 km/h 41 % 0.0 mm
13:30 33.0 °C 17.6 °C 1016.1 hPa SW 5.1 km/h 10.5 km/h 40 % 0.0 mm
13:35 33.2 °C 17.8 °C 1016.1 hPa South 4.7 km/h 10.5 km/h 40 % 0.0 mm
13:40 33.4 °C 17.9 °C 1016.1 hPa South 2.9 km/h 10.5 km/h 40 % 0.0 mm
13:45 33.5 °C 18.1 °C 1016.1 hPa SSW 1.9 km/h 7.9 km/h 40 % 0.0 mm
13:50 33.6 °C 17.7 °C 1015.1 hPa SW 4.3 km/h 10.5 km/h 39 % 0.0 mm
13:55 33.5 °C 17.7 °C 1015.1 hPa South 4.2 km/h 10.5 km/h 39 % 0.0 mm
14:00 33.5 °C 17.7 °C 1015.1 hPa ESE 4.7 km/h 15.4 km/h 39 % 0.0 mm
14:05 33.5 °C 17.7 °C 1015.1 hPa ESE 5.0 km/h 15.4 km/h 39 % 0.0 mm
14:10 33.4 °C 17.6 °C 1015.1 hPa SSW 3.7 km/h 8.7 km/h 39 % 0.0 mm
14:15 33.4 °C 17.2 °C 1015.1 hPa WSW 4.8 km/h 12.2 km/h 38 % 0.0 mm
14:20 33.5 °C 17.7 °C 1015.1 hPa WSW 6.1 km/h 12.2 km/h 39 % 0.0 mm
14:25 33.7 °C 17.8 °C 1015.1 hPa SSW 4.5 km/h 9.3 km/h 39 % 0.0 mm
14:30 33.7 °C 17.4 °C 1015.1 hPa SE 4.3 km/h 9.7 km/h 38 % 0.0 mm
14:35 33.6 °C 17.3 °C 1015.1 hPa East 4.5 km/h 9.7 km/h 38 % 0.0 mm
14:40 33.5 °C 17.2 °C 1015.1 hPa East 4.3 km/h 9.7 km/h 38 % 0.0 mm
14:45 33.6 °C 17.3 °C 1015.1 hPa WSW 4.7 km/h 9.7 km/h 38 % 0.0 mm
14:50 33.8 °C 17.5 °C 1014.1 hPa SW 5.3 km/h 9.7 km/h 38 % 0.0 mm
14:55 33.8 °C 17.5 °C 1014.1 hPa South 5.0 km/h 9.7 km/h 38 % 0.0 mm
15:00 33.8 °C 17.5 °C 1014.1 hPa West 4.2 km/h 11.6 km/h 38 % 0.0 mm
15:05 34.0 °C 17.7 °C 1014.1 hPa SSW 5.0 km/h 11.6 km/h 38 % 0.0 mm
15:10 34.0 °C 17.7 °C 1014.1 hPa SSE 5.1 km/h 10.8 km/h 38 % 0.0 mm
15:15 34.0 °C 17.3 °C 1014.1 hPa SE 4.0 km/h 7.9 km/h 37 % 0.0 mm
15:20 34.0 °C 17.3 °C 1014.1 hPa SW 4.0 km/h 9.0 km/h 37 % 0.0 mm
15:25 34.1 °C 17.3 °C 1014.1 hPa South 4.2 km/h 9.0 km/h 37 % 0.0 mm
15:30 34.1 °C 17.3 °C 1014.1 hPa SE 2.6 km/h 9.0 km/h 37 % 0.0 mm
15:35 34.0 °C 17.3 °C 1014.1 hPa SE 2.9 km/h 10.1 km/h 37 % 0.0 mm
15:40 34.2 °C 17.4 °C 1014.1 hPa SE 4.7 km/h 10.1 km/h 37 % 0.0 mm
15:45 34.2 °C 17.4 °C 1014.1 hPa SE 2.9 km/h 8.7 km/h 37 % 0.0 mm
15:50 34.3 °C 17.5 °C 1014.1 hPa SSE 1.9 km/h 6.4 km/h 37 % 0.0 mm
15:55 34.3 °C 17.5 °C 1014.1 hPa SSE 3.5 km/h 9.0 km/h 37 % 0.0 mm
16:00 34.4 °C 17.6 °C 1014.1 hPa SSE 4.2 km/h 9.0 km/h 37 % 0.0 mm
16:05 34.5 °C 17.7 °C 1013.1 hPa SE 4.8 km/h 8.7 km/h 37 % 0.0 mm
16:10 34.5 °C 17.7 °C 1013.1 hPa SSE 4.2 km/h 8.7 km/h 37 % 0.0 mm
16:14 34.3 °C 17.5 °C 1013.1 hPa South 3.9 km/h 7.9 km/h 37 % 0.0 mm
16:19 34.2 °C 17.4 °C 1014.1 hPa ESE 3.2 km/h 10.5 km/h 37 % 0.0 mm
16:24 34.2 °C 17.4 °C 1014.1 hPa ESE 3.2 km/h 10.5 km/h 37 % 0.0 mm
16:29 34.2 °C 17.4 °C 1014.1 hPa South 3.5 km/h 8.7 km/h 37 % 0.0 mm
16:34 34.2 °C 17.4 °C 1014.1 hPa South 2.9 km/h 8.7 km/h 37 % 0.0 mm
16:39 34.2 °C 17.4 °C 1014.1 hPa South 2.4 km/h 6.9 km/h 37 % 0.0 mm
16:44 34.3 °C 17.5 °C 1014.1 hPa South 3.7 km/h 7.9 km/h 37 % 0.0 mm
16:49 34.2 °C 17.4 °C 1014.1 hPa South 3.9 km/h 7.9 km/h 37 % 0.0 mm
16:54 34.2 °C 17.4 °C 1014.1 hPa South 4.0 km/h 7.9 km/h 37 % 0.0 mm
16:59 34.1 °C 17.3 °C 1014.1 hPa SSE 4.3 km/h 7.9 km/h 37 % 0.0 mm
17:04 34.1 °C 17.3 °C 1014.1 hPa SE 4.3 km/h 7.9 km/h 37 % 0.0 mm
17:09 34.0 °C 17.3 °C 1014.1 hPa SSE 4.2 km/h 6.9 km/h 37 % 0.0 mm
17:14 34.0 °C 17.3 °C 1014.1 hPa SE 4.0 km/h 6.9 km/h 37 % 0.0 mm
17:19 34.0 °C 17.3 °C 1014.1 hPa SE 3.2 km/h 6.9 km/h 37 % 0.0 mm
17:24 34.0 °C 17.3 °C 1014.1 hPa SE 1.8 km/h 5.0 km/h 37 % 0.0 mm
17:29 33.8 °C 17.1 °C 1014.1 hPa SSE 0.5 km/h 3.5 km/h 37 % 0.0 mm
17:34 33.7 °C 17.0 °C 1014.1 hPa SE 1.3 km/h 6.1 km/h 37 % 0.0 mm
17:39 33.6 °C 16.9 °C 1014.1 hPa SE 2.9 km/h 6.1 km/h 37 % 0.0 mm
17:44 33.5 °C 16.8 °C 1014.1 hPa SE 2.4 km/h 5.5 km/h 37 % 0.0 mm
17:49 33.4 °C 16.7 °C 1014.1 hPa SE 1.9 km/h 6.1 km/h 37 % 0.0 mm
17:54 33.1 °C 16.4 °C 1014.1 hPa South 1.9 km/h 6.1 km/h 37 % 0.0 mm
17:59 32.8 °C 16.6 °C 1014.1 hPa SSW 2.3 km/h 5.0 km/h 38 % 0.0 mm
18:05 32.4 °C 16.3 °C 1013.1 hPa SSW 2.7 km/h 5.0 km/h 38 % 0.0 mm
18:10 32.1 °C 16.0 °C 1013.1 hPa SW 2.4 km/h 5.0 km/h 38 % 0.0 mm
18:15 31.6 °C 16.7 °C 1013.1 hPa South 1.4 km/h 4.3 km/h 41 % 0.0 mm
18:20 30.9 °C 16.1 °C 1013.1 hPa North 1.6 km/h 5.5 km/h 41 % 0.0 mm
18:25 30.5 °C 16.1 °C 1013.1 hPa NNW 2.3 km/h 5.5 km/h 42 % 0.0 mm
18:30 29.9 °C 16.3 °C 1013.1 hPa WNW 1.6 km/h 5.5 km/h 44 % 0.0 mm
18:35 29.4 °C 16.6 °C 1013.1 hPa WNW 1.0 km/h 3.5 km/h 46 % 0.0 mm
18:40 29.1 °C 16.3 °C 1013.1 hPa WNW 1.0 km/h 4.0 km/h 46 % 0.0 mm
18:45 28.7 °C 16.6 °C 1013.1 hPa NW 0.5 km/h 4.0 km/h 48 % 0.0 mm
18:50 28.3 °C 16.6 °C 1013.1 hPa Calm   1.8 km/h 49 % 0.0 mm
18:55 28.0 °C 16.6 °C 1013.1 hPa Calm     50 % 0.0 mm
19:00 27.7 °C 16.7 °C 1013.1 hPa WNW 0.3 km/h 3.2 km/h 51 % 0.0 mm
19:05 27.3 °C 16.6 °C 1014.1 hPa WNW 0.5 km/h 3.5 km/h 52 % 0.0 mm
19:10 27.1 °C 17.0 °C 1014.1 hPa NW 1.3 km/h 4.3 km/h 54 % 0.0 mm
19:15 26.7 °C 17.2 °C 1014.1 hPa NW 2.4 km/h 5.5 km/h 56 % 0.0 mm
19:20 26.5 °C 17.3 °C 1014.1 hPa NW 2.3 km/h 5.5 km/h 57 % 0.0 mm
19:25 26.2 °C 17.3 °C 1014.1 hPa NW 2.1 km/h 5.5 km/h 58 % 0.0 mm
19:30 25.9 °C 17.3 °C 1014.1 hPa NNW 1.6 km/h 5.0 km/h 59 % 0.0 mm
19:35 25.6 °C 17.5 °C 1014.1 hPa North 0.5 km/h 3.5 km/h 61 % 0.0 mm
19:40 25.4 °C 17.6 °C 1014.1 hPa North 0.2 km/h   62 % 0.0 mm
19:45 25.1 °C 17.8 °C 1014.1 hPa Calm     64 % 0.0 mm
19:50 24.9 °C 17.6 °C 1014.1 hPa Calm     64 % 0.0 mm
19:55 24.7 °C 17.7 °C 1014.1 hPa Calm     65 % 0.0 mm
20:00 24.5 °C 17.5 °C 1014.1 hPa Calm     65 % 0.0 mm
20:05 24.3 °C 17.8 °C 1014.1 hPa Calm     67 % 0.0 mm
20:10 24.2 °C 17.7 °C 1014.1 hPa Calm     67 % 0.0 mm
20:15 24.0 °C 17.5 °C 1014.1 hPa Calm     67 % 0.0 mm
20:20 23.8 °C 17.6 °C 1013.1 hPa Calm     68 % 0.0 mm
20:25 23.7 °C 17.4 °C 1013.1 hPa Calm     68 % 0.0 mm
20:30 23.7 °C 17.7 °C 1013.1 hPa Calm     69 % 0.0 mm
20:35 23.6 °C 17.8 °C 1014.1 hPa Calm     70 % 0.0 mm
20:40 23.5 °C 17.9 °C 1014.1 hPa Calm     71 % 0.0 mm
20:45 23.4 °C 17.6 °C 1014.1 hPa Calm     70 % 0.0 mm
20:50 23.3 °C 17.7 °C 1014.1 hPa Calm     71 % 0.0 mm
20:55 23.3 °C 17.5 °C 1014.1 hPa Calm     70 % 0.0 mm
21:00 23.2 °C 17.7 °C 1014.1 hPa Calm     71 % 0.0 mm
21:05 23.2 °C 18.1 °C 1015.1 hPa Calm     73 % 0.0 mm
21:10 23.2 °C 18.1 °C 1015.1 hPa North 1.0 km/h 6.4 km/h 73 % 0.0 mm
21:15 23.3 °C 17.7 °C 1015.1 hPa North 2.9 km/h 9.7 km/h 71 % 0.0 mm
21:20 24.8 °C 15.2 °C 1016.1 hPa North 6.6 km/h 19.8 km/h 55 % 0.0 mm
21:25 25.6 °C 15.3 °C 1016.1 hPa North 10.1 km/h 22.4 km/h 53 % 0.0 mm
21:30 26.3 °C 14.1 °C 1016.1 hPa North 10.6 km/h 23.3 km/h 47 % 0.0 mm
21:35 26.6 °C 14.1 °C 1016.1 hPa North 10.9 km/h 27.4 km/h 46 % 0.0 mm
21:40 26.8 °C 13.9 °C 1016.1 hPa NNE 10.6 km/h 27.4 km/h 45 % 0.0 mm
21:45 26.9 °C 13.6 °C 1016.1 hPa NNE 10.0 km/h 27.7 km/h 44 % 0.0 mm
21:50 27.0 °C 13.3 °C 1016.1 hPa North 12.2 km/h 27.7 km/h 43 % 0.0 mm
21:55 27.0 °C 13.3 °C 1016.1 hPa North 12.9 km/h 27.0 km/h 43 % 0.0 mm
22:00 27.0 °C 13.0 °C 1016.1 hPa NNE 11.4 km/h 26.7 km/h 42 % 0.0 mm
22:05 27.0 °C 13.0 °C 1016.1 hPa NNE 11.6 km/h 24.8 km/h 42 % 0.0 mm
22:10 27.0 °C 12.6 °C 1016.1 hPa NNE 11.3 km/h 24.8 km/h 41 % 0.0 mm
22:15 27.0 °C 12.6 °C 1016.1 hPa NNE 11.3 km/h 23.8 km/h 41 % 0.0 mm
22:20 27.0 °C 12.6 °C 1016.8 hPa NE 10.9 km/h 23.8 km/h 41 % 0.0 mm
22:25 26.9 °C 12.6 °C 1016.8 hPa NE 7.7 km/h 18.0 km/h 41 % 0.0 mm
22:30 26.8 °C 12.4 °C 1016.8 hPa NE 8.4 km/h 17.7 km/h 41 % 0.0 mm
22:35 26.8 °C 12.4 °C 1016.1 hPa NNE 9.0 km/h 17.7 km/h 41 % 0.0 mm
22:40 26.7 °C 12.3 °C 1016.1 hPa NNE 8.0 km/h 23.8 km/h 41 % 0.0 mm
22:45 26.6 °C 12.3 °C 1016.1 hPa ENE 7.2 km/h 23.8 km/h 41 % 0.0 mm
22:50 26.5 °C 12.2 °C 1016.1 hPa SE 7.2 km/h 16.6 km/h 41 % 0.0 mm
22:55 26.4 °C 12.1 °C 1016.1 hPa SSE 6.8 km/h 16.6 km/h 41 % 0.0 mm
23:00 26.3 °C 12.4 °C 1016.1 hPa SSE 5.0 km/h 11.6 km/h 42 % 0.0 mm
23:05 26.1 °C 12.2 °C 1016.1 hPa ESE 5.1 km/h 13.0 km/h 42 % 0.0 mm
23:10 26.0 °C 12.1 °C 1016.1 hPa ESE 5.5 km/h 13.7 km/h 42 % 0.0 mm
23:15 25.9 °C 12.3 °C 1016.1 hPa ESE 5.1 km/h 13.7 km/h 43 % 0.0 mm
23:20 25.7 °C 12.6 °C 1016.8 hPa ESE 6.6 km/h 15.4 km/h 44 % 0.0 mm
23:25 25.5 °C 12.7 °C 1016.8 hPa East 6.9 km/h 15.4 km/h 45 % 0.0 mm
23:30 25.1 °C 12.7 °C 1016.8 hPa East 5.1 km/h 14.0 km/h 46 % 0.0 mm
23:35 24.6 °C 13.2 °C 1016.8 hPa East 5.6 km/h 14.0 km/h 49 % 0.0 mm
23:40 24.3 °C 13.2 °C 1016.8 hPa East 5.8 km/h 14.0 km/h 50 % 0.0 mm
23:45 24.0 °C 13.6 °C 1016.8 hPa ENE 5.1 km/h 14.0 km/h 52 % 0.0 mm
23:50 23.9 °C 13.7 °C 1016.8 hPa East 4.3 km/h 11.9 km/h 53 % 0.0 mm
23:55 23.8 °C 13.9 °C 1016.8 hPa East 4.0 km/h 11.9 km/h 54 % 0.0 mm
Vremenska postaja Senovo
Podatki zbrani iz Weather Underground - 3 mb

Script developed by  Jim McMurry - jmcmurry@mwt.net Adapted for the template by  Wim van der Kuil - Leuven-Template.eu

Vremenski podatki so objavljeni na:

WeatherCloud

Weather Underground

AWEKAS

HAMweather, WeatherForYou, PWS Weather

MapView

Geostik

Slovenia weather network

Oprema, ki se uporablja:

Vremenski program
Cumulus

Cumulus